Time;durP1;ratioP1;P1;durP2;ratioP2;P2;SDS_P1;SDS_P2;PMS_P1;PMS_P2;Temp;Humidity;BMP_temperature;BMP_pressure;BME280_temperature;BME280_humidity;BME280_pressure;Samples;Min_cycle;Max_cycle;Signal;HPM_P1;HPM_P2
2023/06/29 00:01:59;;;;;;;;;;;;;;;14.17;100.00;99582.47;5052562;28;806;-60
2023/06/29 00:04:26;;;;;;;;;;;;;;;14.11;100.00;99579.41;5052603;28;1026;-60
2023/06/29 00:06:54;;;;;;;;;;;;;;;14.09;100.00;99577.06;5052775;28;823;-60
2023/06/29 00:09:22;;;;;;;;;;;;;;;14.08;100.00;99574.72;5052412;28;949;-60
2023/06/29 00:11:49;;;;;;;;;;;;;;;14.11;100.00;99575.88;5052318;28;912;-60
2023/06/29 00:14:16;;;;;;;;;;;;;;;14.11;100.00;99584.97;5052385;28;862;-60
2023/06/29 00:16:43;;;;;;;;;;;;;;;14.09;100.00;99596.53;5052573;28;1894;-60
2023/06/29 00:19:14;;;;;;;;;;;;;;;14.07;100.00;99598.94;5052306;28;826;-61
2023/06/29 00:21:41;;;;;;;;;;;;;;;14.08;100.00;99605.28;5052052;28;1274;-64
2023/06/29 00:24:11;;;;;;;;;;;;;;;14.11;100.00;99612.00;5052208;28;881;-62
2023/06/29 00:26:38;;;;;;;;;;;;;;;14.14;100.00;99608.34;5052291;28;993;-63
2023/06/29 00:29:06;;;;;;;;;;;;;;;14.18;100.00;99614.59;5052232;28;896;-64
2023/06/29 00:31:33;;;;;;;;;;;;;;;14.24;100.00;99601.75;5052171;28;787;-64
2023/06/29 00:34:00;;;;;;;;;;;;;;;14.32;100.00;99594.81;5052142;28;862;-63
2023/06/29 00:36:28;;;;;;;;;;;;;;;14.32;100.00;99596.81;5052083;28;961;-63
2023/06/29 00:38:55;;;;;;;;;;;;;;;14.32;100.00;99597.59;5051940;28;1964;-61
2023/06/29 00:41:22;;;;;;;;;;;;;;;14.33;100.00;99590.81;5051970;28;846;-64
2023/06/29 00:43:50;;;;;;;;;;;;;;;14.25;100.00;99586.63;5051906;28;890;-64
2023/06/29 00:46:18;;;;;;;;;;;;;;;14.24;100.00;99596.19;5051847;28;843;-64
2023/06/29 00:48:45;;;;;;;;;;;;;;;14.23;100.00;99603.75;5051762;28;897;-63
2023/06/29 00:51:14;;;;;;;;;;;;;;;14.28;100.00;99602.47;5051405;28;831;-61
2023/06/29 00:53:42;;;;;;;;;;;;;;;14.32;100.00;99608.72;5051704;28;838;-60
2023/06/29 00:56:09;;;;;;;;;;;;;;;14.33;100.00;99607.50;5051584;28;862;-61
2023/06/29 00:58:36;;;;;;;;;;;;;;;14.32;100.00;99613.47;5051581;28;1894;-60
2023/06/29 01:01:04;;;;;;;;;;;;;;;14.29;100.00;99624.28;5052025;28;818;-60
2023/06/29 01:03:31;;;;;;;;;;;;;;;14.32;100.00;99619.03;5051649;28;830;-60
2023/06/29 01:06:04;;;;;;;;;;;;;;;14.35;100.00;99618.97;5051559;28;867;-60
2023/06/29 01:08:35;;;;;;;;;;;;;;;14.38;100.00;99611.75;5051579;28;826;-60
2023/06/29 01:11:03;;;;;;;;;;;;;;;14.40;100.00;99609.31;5051917;28;915;-60
2023/06/29 01:13:31;;;;;;;;;;;;;;;14.43;100.00;99620.38;5052420;28;842;-59
2023/06/29 01:15:59;;;;;;;;;;;;;;;14.51;100.00;99621.00;5051890;28;794;-59
2023/06/29 01:18:30;;;;;;;;;;;;;;;14.57;100.00;99624.03;5051190;28;1910;-59
2023/06/29 01:20:59;;;;;;;;;;;;;;;14.63;100.00;99625.88;5051109;28;1387;-59
2023/06/29 01:23:34;;;;;;;;;;;;;;;14.66;100.00;99630.59;5051386;28;842;-59
2023/06/29 01:26:02;;;;;;;;;;;;;;;14.60;100.00;99623.19;5051166;28;886;-61
2023/06/29 01:28:32;;;;;;;;;;;;;;;14.61;100.00;99627.53;5051275;28;799;-60
2023/06/29 01:31:02;;;;;;;;;;;;;;;14.60;100.00;99620.41;5051343;28;862;-60
2023/06/29 01:33:30;;;;;;;;;;;;;;;14.54;100.00;99613.78;5051502;28;830;-60
2023/06/29 01:36:15;;;;;;;;;;;;;;;14.48;100.00;99619.84;5051233;28;811;-60
2023/06/29 01:38:45;;;;;;;;;;;;;;;14.43;100.00;99623.16;5051815;28;1910;-60
2023/06/29 01:41:15;;;;;;;;;;;;;;;14.46;100.00;99619.50;5051265;28;799;-60
2023/06/29 01:43:42;;;;;;;;;;;;;;;14.49;100.00;99624.19;5051332;28;853;-60
2023/06/29 01:46:09;;;;;;;;;;;;;;;14.48;100.00;99630.97;5051473;28;818;-60
2023/06/29 01:48:37;;;;;;;;;;;;;;;14.51;100.00;99626.56;5051233;28;822;-60
2023/06/29 01:51:06;;;;;;;;;;;;;;;14.54;100.00;99628.47;5051149;28;830;-60
2023/06/29 01:53:37;;;;;;;;;;;;;;;14.57;100.00;99629.63;5051077;28;882;-60
2023/06/29 01:56:04;;;;;;;;;;;;;;;14.58;100.00;99625.63;5033222;28;839;-60
2023/06/29 01:58:32;;;;;;;;;;;;;;;14.58;100.00;99617.28;5050928;28;1965;-60
2023/06/29 02:00:58;;;;;;;;;;;;;;;14.55;100.00;99609.75;5051015;28;893;-59
2023/06/29 02:03:25;;;;;;;;;;;;;;;14.51;100.00;99604.31;5053684;28;818;-59
2023/06/29 02:05:52;;;;;;;;;;;;;;;14.48;100.00;99616.28;5055043;28;917;-59
2023/06/29 02:08:20;;;;;;;;;;;;;;;14.45;100.00;99612.38;5054769;28;873;-59
2023/06/29 02:10:47;;;;;;;;;;;;;;;14.43;100.00;99612.03;5054910;28;878;-59
2023/06/29 02:13:14;;;;;;;;;;;;;;;14.49;100.00;99623.44;5054599;28;906;-59
2023/06/29 02:15:41;;;;;;;;;;;;;;;14.52;100.00;99625.31;5054719;28;851;-59
2023/06/29 02:18:08;;;;;;;;;;;;;;;14.49;100.00;99621.41;5054609;28;1952;-59
2023/06/29 02:20:35;;;;;;;;;;;;;;;14.47;100.00;99615.50;5054175;28;1208;-60
2023/06/29 02:23:03;;;;;;;;;;;;;;;14.43;100.00;99620.38;5054777;28;850;-59
2023/06/29 02:25:30;;;;;;;;;;;;;;;14.34;100.00;99611.06;5054694;28;842;-59
2023/06/29 02:27:57;;;;;;;;;;;;;;;14.28;100.00;99606.03;5054399;28;962;-60
2023/06/29 02:30:23;;;;;;;;;;;;;;;14.26;100.00;99614.00;5054453;28;826;-59
2023/06/29 02:32:49;;;;;;;;;;;;;;;14.24;100.00;99604.53;5054489;28;1013;-59
2023/06/29 02:35:17;;;;;;;;;;;;;;;14.22;100.00;99588.28;5054385;28;806;-59
2023/06/29 02:37:44;;;;;;;;;;;;;;;14.28;100.00;99589.34;5054168;28;1918;-59
2023/06/29 02:40:12;;;;;;;;;;;;;;;14.32;100.00;99591.25;5054234;28;869;-59
2023/06/29 02:42:39;;;;;;;;;;;;;;;14.34;100.00;99608.28;5054071;28;875;-59
2023/06/29 02:45:07;;;;;;;;;;;;;;;14.36;100.00;99612.22;5054025;28;887;-59
2023/06/29 02:47:34;;;;;;;;;;;;;;;14.37;100.00;99596.31;5054118;28;850;-59
2023/06/29 02:50:02;;;;;;;;;;;;;;;14.34;100.00;99589.63;5054096;28;866;-59
2023/06/29 02:52:29;;;;;;;;;;;;;;;14.34;100.00;99606.28;5053947;28;776;-59
2023/06/29 02:54:56;;;;;;;;;;;;;;;14.34;100.00;99611.06;5053726;28;950;-59
2023/06/29 02:57:22;;;;;;;;;;;;;;;14.36;100.00;99628.09;5053975;28;1893;-59
2023/06/29 02:59:49;;;;;;;;;;;;;;;14.39;100.00;99641.13;5053828;28;835;-60
2023/06/29 03:02:16;;;;;;;;;;;;;;;14.38;100.00;99645.91;5053870;28;838;-60
2023/06/29 03:04:42;;;;;;;;;;;;;;;14.38;100.00;99637.59;5053684;28;872;-59
2023/06/29 03:07:09;;;;;;;;;;;;;;;14.36;100.00;99647.53;5053802;28;834;-60
2023/06/29 03:09:36;;;;;;;;;;;;;;;14.37;100.00;99655.47;5053687;28;810;-62
2023/06/29 03:12:03;;;;;;;;;;;;;;;14.39;100.00;99649.47;5054069;28;996;-61
2023/06/29 03:14:30;;;;;;;;;;;;;;;14.37;100.00;99624.09;5053572;28;842;-61
2023/06/29 03:16:56;;;;;;;;;;;;;;;14.29;100.00;99601.22;5053438;28;1894;-61
2023/06/29 03:19:23;;;;;;;;;;;;;;;14.28;100.00;99606.03;5053384;28;940;-61
2023/06/29 03:21:50;;;;;;;;;;;;;;;14.28;100.00;99583.00;5053166;28;1387;-61
2023/06/29 03:24:16;;;;;;;;;;;;;;;14.30;100.00;99613.94;5053236;28;842;-61
2023/06/29 03:26:43;;;;;;;;;;;;;;;14.34;100.00;99608.28;5053473;28;831;-61
2023/06/29 03:29:10;;;;;;;;;;;;;;;14.37;100.00;99605.41;5053244;28;810;-61
2023/06/29 03:31:37;;;;;;;;;;;;;;;14.39;100.00;99605.75;5053316;28;904;-61
2023/06/29 03:34:03;;;;;;;;;;;;;;;14.39;100.00;99608.53;5053198;28;877;-61
2023/06/29 03:36:30;;;;;;;;;;;;;;;14.37;100.00;99610.97;5035273;28;835;-61
2023/06/29 03:38:57;;;;;;;;;;;;;;;14.37;100.00;99624.88;5053188;28;1969;-60
2023/06/29 03:41:24;;;;;;;;;;;;;;;14.43;100.00;99633.50;5053271;28;881;-61
2023/06/29 03:43:50;;;;;;;;;;;;;;;14.57;100.00;99644.28;5053009;28;850;-60
2023/06/29 03:46:17;;;;;;;;;;;;;;;14.67;100.00;99653.63;5052948;28;885;-61
2023/06/29 03:48:44;;;;;;;;;;;;;;;14.71;100.00;99648.75;5052974;28;846;-61
2023/06/29 03:51:11;;;;;;;;;;;;;;;14.83;100.00;99633.34;5052797;28;807;-61
2023/06/29 03:53:38;;;;;;;;;;;;;;;14.88;100.00;99633.59;5052744;28;913;-61
2023/06/29 03:56:04;;;;;;;;;;;;;;;14.95;100.00;99645.78;5052997;28;833;-61
2023/06/29 03:58:31;;;;;;;;;;;;;;;14.99;100.00;99657.59;5052732;28;1983;-61
2023/06/29 04:00:58;;;;;;;;;;;;;;;14.94;100.00;99656.13;5052690;28;842;-61
2023/06/29 04:03:25;;;;;;;;;;;;;;;14.93;100.00;99645.44;5052478;28;934;-61
2023/06/29 04:05:50;;;;;;;;;;;;;;;14.93;100.00;99648.22;5052593;28;914;-61
2023/06/29 04:08:17;;;;;;;;;;;;;;;14.87;100.00;99662.66;5052571;28;846;-61
2023/06/29 04:10:44;;;;;;;;;;;;;;;14.73;100.00;99659.44;5052617;28;992;-61
2023/06/29 04:13:11;;;;;;;;;;;;;;;14.78;100.00;99659.69;5052492;28;818;-63
2023/06/29 04:15:38;;;;;;;;;;;;;;;14.85;100.00;99661.50;5052433;28;810;-63
2023/06/29 04:18:05;;;;;;;;;;;;;;;14.99;100.00;99655.59;5052293;28;1947;-63
2023/06/29 04:20:32;;;;;;;;;;;;;;;15.17;100.00;99646.81;5052073;28;1429;-63
2023/06/29 04:22:59;;;;;;;;;;;;;;;15.38;100.00;99639.09;5052178;28;803;-63
2023/06/29 04:25:26;;;;;;;;;;;;;;;15.52;100.00;99647.06;5051630;28;951;-63
2023/06/29 04:27:53;;;;;;;;;;;;;;;15.58;100.00;99634.16;5052225;28;877;-63
2023/06/29 04:30:21;;;;;;;;;;;;;;;15.64;100.00;99635.19;5052195;28;874;-63
2023/06/29 04:32:48;;;;;;;;;;;;;;;15.68;100.00;99624.72;5052021;28;890;-62
2023/06/29 04:35:15;;;;;;;;;;;;;;;15.67;100.00;99625.16;5052109;28;806;-62
2023/06/29 04:37:42;;;;;;;;;;;;;;;15.58;100.00;99634.16;5051971;28;1989;-62
2023/06/29 04:40:09;;;;;;;;;;;;;;;15.74;100.00;99633.31;5051973;28;869;-62
2023/06/29 04:42:47;;;;;;;;;;;;;;;15.79;100.00;99634.78;5051927;28;878;-62
2023/06/29 04:45:19;;;;;;;;;;;;;;;15.85;100.00;99642.19;5051843;28;913;-62
2023/06/29 04:47:46;;;;;;;;;;;;;;;15.88;100.00;99648.88;5051847;28;978;-62
2023/06/29 04:50:13;;;;;;;;;;;;;;;15.91;100.00;99659.13;5051831;28;805;-61
2023/06/29 04:52:40;;;;;;;;;;;;;;;15.97;100.00;99659.38;5051700;28;924;-61
2023/06/29 04:55:09;;;;;;;;;;;;;;;16.08;100.00;99654.25;5051723;28;850;-60
2023/06/29 04:57:36;;;;;;;;;;;;;;;16.07;100.00;99647.13;5051610;28;1862;-60
2023/06/29 05:00:07;;;;;;;;;;;;;;;16.10;100.00;99658.16;5051737;28;818;-60
2023/06/29 05:02:32;;;;;;;;;;;;;;;16.24;100.00;99650.59;5051631;28;870;-60
2023/06/29 05:04:59;;;;;;;;;;;;;;;16.44;100.00;99653.94;5051598;28;814;-60
2023/06/29 05:07:26;;;;;;;;;;;;;;;16.72;100.00;99674.56;5051615;28;807;-60
2023/06/29 05:09:54;;;;;;;;;;;;;;;16.85;100.00;99677.38;5051584;28;1004;-61
2023/06/29 05:12:21;;;;;;;;;;;;;;;16.91;100.00;99681.16;5051605;28;818;-60
2023/06/29 05:14:48;;;;;;;;;;;;;;;16.74;100.00;99686.06;5051663;28;894;-60
2023/06/29 05:17:17;;;;;;;;;;;;;;;16.47;100.00;99686.53;5051365;28;1960;-60
2023/06/29 05:19:45;;;;;;;;;;;;;;;16.23;100.00;99697.19;5051366;28;914;-60
2023/06/29 05:22:12;;;;;;;;;;;;;;;16.30;100.00;99710.16;5051171;28;1256;-60
2023/06/29 05:24:40;;;;;;;;;;;;;;;16.48;100.00;99710.41;5051397;28;862;-60
2023/06/29 05:27:07;;;;;;;;;;;;;;;16.58;100.00;99707.72;5051313;28;830;-60
2023/06/29 05:29:35;;;;;;;;;;;;;;;16.63;100.00;99690.44;5051385;28;846;-60
2023/06/29 05:32:03;;;;;;;;;;;;;;;16.66;100.00;99692.31;5051555;28;807;-60
2023/06/29 05:34:30;;;;;;;;;;;;;;;17.36;100.00;99704.41;5033607;28;866;-60
2023/06/29 05:36:57;;;;;;;;;;;;;;;17.97;100.00;99707.88;5053133;28;1909;-60
2023/06/29 05:39:24;;;;;;;;;;;;;;;18.51;100.00;99705.84;5055393;28;905;-60
2023/06/29 05:41:51;;;;;;;;;;;;;;;18.60;100.00;99700.28;5055517;28;826;-61
2023/06/29 05:44:18;;;;;;;;;;;;;;;18.57;100.00;99699.19;5055495;28;830;-60
2023/06/29 05:46:46;;;;;;;;;;;;;;;18.40;100.00;99705.50;5055179;28;930;-61
2023/06/29 05:49:13;;;;;;;;;;;;;;;18.51;100.00;99709.44;5055246;28;814;-61
2023/06/29 05:51:42;;;;;;;;;;;;;;;19.77;100.00;99710.66;5055089;28;857;-61
2023/06/29 05:54:10;;;;;;;;;;;;;;;20.71;100.00;99704.38;5054925;28;922;-61
2023/06/29 05:56:37;;;;;;;;;;;;;;;20.95;100.00;99712.06;5055078;28;905;-61
2023/06/29 05:59:04;;;;;;;;;;;;;;;21.09;100.00;99714.19;5054971;28;1949;-61
2023/06/29 06:01:31;;;;;;;;;;;;;;;21.19;100.00;99709.28;5054994;28;897;-62
2023/06/29 06:03:58;;;;;;;;;;;;;;;21.72;100.00;99717.06;5055011;28;874;-61
2023/06/29 06:06:25;;;;;;;;;;;;;;;21.00;100.00;99717.81;5054799;28;954;-62
2023/06/29 06:08:52;;;;;;;;;;;;;;;20.49;100.00;99709.44;5054813;28;846;-62
2023/06/29 06:11:20;;;;;;;;;;;;;;;21.55;100.00;99702.66;5054997;28;1043;-62
2023/06/29 06:13:47;;;;;;;;;;;;;;;21.55;100.00;99696.25;5054689;28;961;-62
2023/06/29 06:16:15;;;;;;;;;;;;;;;20.96;100.00;99700.38;5054652;28;838;-62
2023/06/29 06:18:43;;;;;;;;;;;;;;;21.07;100.00;99699.06;5055310;28;1894;-62
2023/06/29 06:21:10;;;;;;;;;;;;;;;22.21;100.00;99707.19;5054215;28;1425;-62
2023/06/29 06:23:37;;;;;;;;;;;;;;;22.88;100.00;99705.97;5055612;28;767;-62
2023/06/29 06:26:04;;;;;;;;;;;;;;;22.96;100.00;99704.31;5054771;28;874;-62
2023/06/29 06:28:32;;;;;;;;;;;;;;;23.16;100.00;99692.28;5054833;28;807;-62
2023/06/29 06:30:59;;;;;;;;;;;;;;;24.09;100.00;99703.63;5054604;28;886;-62
2023/06/29 06:33:30;;;;;;;;;;;;;;;25.45;100.00;99696.88;5054817;28;858;-63
2023/06/29 06:35:58;;;;;;;;;;;;;;;26.49;100.00;99690.38;5054306;28;795;-62
2023/06/29 06:38:26;;;;;;;;;;;;;;;26.55;100.00;99698.09;5054241;28;1977;-63
2023/06/29 06:40:53;;;;;;;;;;;;;;;25.68;100.00;99690.00;5054345;28;811;-62
2023/06/29 06:43:21;;;;;;;;;;;;;;;25.72;100.00;99689.00;5054107;28;918;-61
2023/06/29 06:45:48;;;;;;;;;;;;;;;26.65;100.00;99682.38;5054154;28;869;-61
2023/06/29 06:48:16;;;;;;;;;;;;;;;26.31;100.00;99681.59;5053468;28;885;-61
2023/06/29 06:50:43;;;;;;;;;;;;;;;25.70;100.00;99685.91;5053993;28;830;-60
2023/06/29 06:53:10;;;;;;;;;;;;;;;25.99;100.00;99679.81;5054226;28;838;-60
2023/06/29 06:55:38;;;;;;;;;;;;;;;25.81;100.00;99681.03;5054008;28;834;-60
2023/06/29 06:58:05;;;;;;;;;;;;;;;25.85;100.00;99692.88;5053855;28;1890;-61
2023/06/29 07:00:32;;;;;;;;;;;;;;;25.41;100.00;99682.97;5053845;28;850;-61
2023/06/29 07:02:59;;;;;;;;;;;;;;;25.09;100.00;99687.16;5035922;28;1304;-61
2023/06/29 07:05:27;;;;;;;;;;;;;;;25.52;100.00;99687.91;5053768;28;830;-61
2023/06/29 07:07:54;;;;;;;;;;;;;;;25.52;100.00;99687.09;5053842;28;814;-61
2023/06/29 07:10:22;;;;;;;;;;;;;;;24.79;100.00;99693.16;5053573;28;1016;-62
2023/06/29 07:12:49;;;;;;;;;;;;;;;24.56;100.00;99704.31;5053626;28;854;-62
2023/06/29 07:15:16;;;;;;;;;;;;;;;25.13;100.00;99701.84;5053626;28;889;-62
2023/06/29 07:17:44;;;;;;;;;;;;;;;26.03;100.00;99702.97;5053522;28;1889;-62
2023/06/29 07:20:12;;;;;;;;;;;;;;;27.04;100.00;99699.31;5053093;28;1399;-63
2023/06/29 07:22:39;;;;;;;;;;;;;;;27.92;100.00;99702.88;5053511;28;807;-63
2023/06/29 07:25:07;;;;;;;;;;;;;;;28.14;100.00;99704.78;5053480;28;901;-63
2023/06/29 07:27:34;;;;;;;;;;;;;;;27.56;100.00;99705.59;5053329;28;913;-63
2023/06/29 07:30:01;;;;;;;;;;;;;;;27.91;100.00;99696.41;5053354;28;925;-63
2023/06/29 07:32:29;;;;;;;;;;;;;;;27.92;100.00;99692.25;5053556;28;858;-64
2023/06/29 07:34:57;;;;;;;;;;;;;;;28.06;100.00;99687.53;5053262;28;893;-64
2023/06/29 07:37:24;;;;;;;;;;;;;;;28.28;100.00;99697.97;5053172;28;2001;-64
2023/06/29 07:39:51;;;;;;;;;;;;;;;27.07;100.00;99700.34;5053272;28;870;-63
2023/06/29 07:42:19;;;;;;;;;;;;;;;26.68;100.00;99698.38;5053093;28;526;-64
2023/06/29 07:44:46;;;;;;;;;;;;;;;27.13;100.00;99706.00;5053341;28;819;-64
2023/06/29 07:47:13;;;;;;;;;;;;;;;27.19;100.00;99698.25;5053013;28;912;-64
2023/06/29 07:49:40;;;;;;;;;;;;;;;27.06;100.00;99698.81;5052879;28;818;-64
2023/06/29 07:52:07;;;;;;;;;;;;;;;27.58;100.00;99703.03;5052927;28;855;-64
2023/06/29 07:54:34;;;;;;;;;;;;;;;27.54;100.00;99706.13;5052838;28;814;-64
2023/06/29 07:57:02;;;;;;;;;;;;;;;27.87;100.00;99699.53;5052764;28;1890;-65
2023/06/29 07:59:29;;;;;;;;;;;;;;;27.33;100.00;99702.09;5052379;28;815;-65
2023/06/29 08:01:56;;;;;;;;;;;;;;;26.66;100.00;99707.38;5052389;28;870;-64
2023/06/29 08:04:23;;;;;;;;;;;;;;;26.79;100.00;99712.53;5034852;28;1295;-64
2023/06/29 08:06:51;;;;;;;;;;;;;;;27.00;100.00;99707.31;5052640;28;902;-66
2023/06/29 08:09:19;;;;;;;;;;;;;;;27.39;100.00;99705.69;5052918;28;881;-65
2023/06/29 08:11:46;;;;;;;;;;;;;;;27.57;100.00;99698.63;5053171;28;1001;-65
2023/06/29 08:14:14;;;;;;;;;;;;;;;27.94;100.00;99694.59;5053023;28;858;-66
2023/06/29 08:16:41;;;;;;;;;;;;;;;27.26;100.00;99701.34;5052715;28;830;-66
2023/06/29 08:19:09;;;;;;;;;;;;;;;26.40;100.00;99701.97;5052380;28;1943;-64
2023/06/29 08:21:36;;;;;;;;;;;;;;;26.49;100.00;99696.03;5052084;28;1312;-65
2023/06/29 08:24:03;;;;;;;;;;;;;;;27.20;100.00;99692.03;5052230;28;807;-65
2023/06/29 08:26:31;;;;;;;;;;;;;;;27.78;100.00;99693.34;5052307;28;843;-65
2023/06/29 08:28:58;;;;;;;;;;;;;;;27.68;100.00;99684.41;5052211;28;858;-65
2023/06/29 08:31:26;;;;;;;;;;;;;;;28.09;100.00;99692.16;5052134;28;874;-65
2023/06/29 08:33:53;;;;;;;;;;;;;;;27.82;100.00;99683.25;5052203;28;893;-66
2023/06/29 08:36:22;;;;;;;;;;;;;;;26.92;99.43;99680.78;5052107;28;841;-65
2023/06/29 08:38:49;;;;;;;;;;;;;;;26.58;100.00;99683.69;5051872;28;1969;-66
2023/06/29 08:41:16;;;;;;;;;;;;;;;26.81;95.66;99673.09;5052034;28;810;-67
2023/06/29 08:43:43;;;;;;;;;;;;;;;26.68;95.99;99676.47;5051888;28;861;-64
2023/06/29 08:46:11;;;;;;;;;;;;;;;26.63;98.64;99679.31;5051996;28;803;-65
2023/06/29 08:48:41;;;;;;;;;;;;;;;26.75;99.17;99671.56;5051710;28;842;-65
2023/06/29 08:51:12;;;;;;;;;;;;;;;26.63;94.23;99668.75;5051853;28;822;-65
2023/06/29 08:53:41;;;;;;;;;;;;;;;26.20;91.67;99671.06;5051780;28;819;-69
2023/06/29 08:56:09;;;;;;;;;;;;;;;26.03;94.13;99673.88;5051692;28;876;-65
2023/06/29 08:58:36;;;;;;;;;;;;;;;26.01;87.63;99673.59;5051689;28;1886;-65
2023/06/29 09:01:04;;;;;;;;;;;;;;;26.21;96.91;99669.78;5051703;28;802;-65
2023/06/29 09:03:32;;;;;;;;;;;;;;;26.62;98.15;99680.59;5051621;28;845;-66
2023/06/29 09:05:57;;;;;;;;;;;;;;;26.97;100.00;99680.03;5051548;28;979;-65
2023/06/29 09:08:26;;;;;;;;;;;;;;;27.18;100.00;99671.16;5051648;28;873;-66
2023/06/29 09:10:53;;;;;;;;;;;;;;;27.27;100.00;99679.44;5051452;28;974;-65
2023/06/29 09:13:30;;;;;;;;;;;;;;;26.77;90.77;99675.41;5052121;28;783;-65
2023/06/29 09:16:00;;;;;;;;;;;;;;;25.71;97.95;99668.41;5051501;28;795;-66
2023/06/29 09:18:28;;;;;;;;;;;;;;;25.11;100.00;99670.47;5051224;28;1947;-66
2023/06/29 09:20:56;;;;;;;;;;;;;;;25.51;100.00;99663.72;5051282;28;1414;-65
2023/06/29 09:23:28;;;;;;;;;;;;;;;25.81;100.00;99664.03;5051437;28;874;-66
2023/06/29 09:25:56;;;;;;;;;;;;;;;26.22;95.76;99669.28;5051377;28;869;-65
2023/06/29 09:28:24;;;;;;;;;;;;;;;26.73;100.00;99672.06;5051371;28;882;-66
2023/06/29 09:30:51;;;;;;;;;;;;;;;27.09;100.00;99673.00;5051657;28;795;-65
2023/06/29 09:33:19;;;;;;;;;;;;;;;27.62;100.00;99660.94;5051936;28;764;-65
2023/06/29 09:35:47;;;;;;;;;;;;;;;27.76;85.76;99676.06;5051444;28;799;-67
2023/06/29 09:38:15;;;;;;;;;;;;;;;26.78;93.45;99659.16;5051400;28;1976;-65
2023/06/29 10:11:46;;;;;;;;;;;;;;;25.95;94.16;99659.47;5399588;22;1682;-57
2023/06/29 10:14:13;;;;;;;;;;;;;;;25.82;99.80;99651.44;5051432;28;877;-57
2023/06/29 10:16:44;;;;;;;;;;;;;;;26.21;100.00;99649.94;5051164;28;829;-58
2023/06/29 10:19:20;;;;;;;;;;;;;;;26.70;99.25;99649.69;5050935;28;1997;-58
2023/06/29 10:21:52;;;;;;;;;;;;;;;26.83;96.85;99655.56;5050791;28;842;-57
2023/06/29 10:24:31;;;;;;;;;;;;;;;26.70;92.13;99658.19;5035374;28;1577;-58
2023/06/29 10:26:58;;;;;;;;;;;;;;;26.43;93.48;99649.91;5054592;28;865;-57
2023/06/29 10:29:26;;;;;;;;;;;;;;;26.36;92.94;99655.34;5054560;28;1004;-57
2023/06/29 10:31:58;;;;;;;;;;;;;;;26.68;91.87;99650.19;5054453;28;858;-58
2023/06/29 10:34:28;;;;;;;;;;;;;;;26.94;96.15;99652.69;5054363;28;872;-57
2023/06/29 10:36:59;;;;;;;;;;;;;;;27.01;89.14;99655.00;5054321;28;1885;-58
2023/06/29 10:39:41;;;;;;;;;;;;;;;26.45;86.43;99655.06;5054347;28;822;-58
2023/06/29 10:42:32;;;;;;;;;;;;;;;26.47;93.59;99655.34;5054227;28;814;-57
2023/06/29 10:44:59;;;;;;;;;;;;;;;25.89;88.63;99655.84;5054060;28;1164;-58
2023/06/29 10:47:36;;;;;;;;;;;;;;;25.55;88.98;99641.59;5054500;28;810;-58
2023/06/29 10:50:13;;;;;;;;;;;;;;;24.89;95.79;99637.97;5054031;28;937;-58
2023/06/29 10:52:42;;;;;;;;;;;;;;;24.43;97.79;99642.56;5054046;28;810;-57
2023/06/29 10:55:18;;;;;;;;;;;;;;;25.06;96.86;99636.00;5054205;28;854;-57
2023/06/29 10:57:54;;;;;;;;;;;;;;;26.16;91.00;99634.50;5053887;28;1969;-58
2023/06/29 11:00:22;;;;;;;;;;;;;;;27.00;94.99;99627.16;5053954;28;826;-57
2023/06/29 11:02:50;;;;;;;;;;;;;;;27.70;93.28;99628.63;5053856;28;786;-57
2023/06/29 11:05:18;;;;;;;;;;;;;;;28.24;86.93;99624.34;5054401;28;811;-57
2023/06/29 11:07:47;;;;;;;;;;;;;;;28.28;88.65;99632.59;5054408;28;779;-57
2023/06/29 11:10:14;;;;;;;;;;;;;;;28.15;88.62;99623.94;5053946;28;978;-57
2023/06/29 11:12:42;;;;;;;;;;;;;;;28.04;67.51;99624.81;5053460;28;1266;-58
2023/06/29 11:15:12;;;;;;;;;;;;;;;27.95;62.36;99639.31;5053698;28;814;-57
2023/06/29 11:17:39;;;;;;;;;;;;;;;28.22;62.16;99629.03;5053490;28;1909;-57
2023/06/29 11:20:10;;;;;;;;;;;;;;;28.86;62.46;99628.69;5053528;28;838;-57
2023/06/29 11:22:37;;;;;;;;;;;;;;;29.04;52.00;99633.63;5053499;28;845;-57
2023/06/29 11:25:04;;;;;;;;;;;;;;;29.60;49.96;99620.00;5053484;28;838;-58
2023/06/29 11:27:32;;;;;;;;;;;;;;;29.80;46.05;99618.69;5053325;28;802;-57
2023/06/29 11:29:59;;;;;;;;;;;;;;;28.49;47.08;99621.59;5053388;28;873;-58
2023/06/29 11:32:26;;;;;;;;;;;;;;;27.45;48.56;99618.47;5053237;28;1028;-58
2023/06/29 11:35:00;;;;;;;;;;;;;;;28.02;49.94;99616.03;5053100;28;874;-57
2023/06/29 11:37:27;;;;;;;;;;;;;;;28.67;48.39;99606.63;5053096;28;1878;-57
2023/06/29 11:39:54;;;;;;;;;;;;;;;28.24;51.23;99615.84;5053290;28;837;-57
2023/06/29 11:42:22;;;;;;;;;;;;;;;28.94;49.47;99615.41;5053027;28;846;-57
2023/06/29 11:44:49;;;;;;;;;;;;;;;29.78;46.51;99601.38;5053057;28;791;-58
2023/06/29 11:47:17;;;;;;;;;;;;;;;30.02;42.17;99601.25;5052976;28;822;-57
2023/06/29 11:49:44;;;;;;;;;;;;;;;30.16;40.27;99602.03;5053028;28;989;-59
2023/06/29 11:52:11;;;;;;;;;;;;;;;30.29;41.42;99604.16;5053622;28;775;-58
2023/06/29 11:54:38;;;;;;;;;;;;;;;30.41;38.21;99602.66;5052854;28;822;-58
2023/06/29 11:57:05;;;;;;;;;;;;;;;30.46;39.48;99595.31;5052775;28;1874;-57
2023/06/29 11:59:34;;;;;;;;;;;;;;;31.10;41.26;99597.94;5052854;28;803;-59
2023/06/29 12:02:01;;;;;;;;;;;;;;;31.33;39.29;99592.50;5052891;28;854;-58
2023/06/29 12:04:28;;;;;;;;;;;;;;;31.65;39.67;99597.25;5052877;28;813;-59
2023/06/29 12:06:56;;;;;;;;;;;;;;;31.85;39.42;99594.97;5052891;28;829;-58
2023/06/29 12:09:33;;;;;;;;;;;;;;;32.28;40.46;99600.13;5052563;28;869;-58
2023/06/29 12:12:02;;;;;;;;;;;;;;;32.86;38.72;99603.78;5052442;28;1352;-58
2023/06/29 12:14:34;;;;;;;;;;;;;;;32.91;38.46;99597.13;5052483;28;900;-57
2023/06/29 12:17:02;;;;;;;;;;;;;;;32.21;36.40;99597.97;5034814;28;1901;-58
2023/06/29 12:19:36;;;;;;;;;;;;;;;32.47;38.58;99596.25;5052620;28;833;-58
2023/06/29 12:22:12;;;;;;;;;;;;;;;32.72;36.35;99590.94;5052355;28;826;-58
2023/06/29 12:24:38;;;;;;;;;;;;;;;33.18;37.53;99593.25;5034449;28;1272;-58
2023/06/29 12:27:06;;;;;;;;;;;;;;;33.41;36.53;99599.84;5052183;28;848;-58
2023/06/29 12:29:33;;;;;;;;;;;;;;;31.64;34.73;99598.56;5052430;28;818;-58
2023/06/29 12:32:00;;;;;;;;;;;;;;;28.66;37.45;99607.97;5052114;28;798;-58
2023/06/29 12:34:31;;;;;;;;;;;;;;;26.97;40.73;99602.66;5052170;28;893;-58
2023/06/29 12:36:58;;;;;;;;;;;;;;;26.45;44.42;99604.09;5052044;28;870;-57
2023/06/29 12:39:25;;;;;;;;;;;;;;;27.97;40.57;99602.63;5051929;28;904;-57
2023/06/29 12:41:53;;;;;;;;;;;;;;;29.60;39.13;99592.28;5052010;28;861;-57
2023/06/29 12:44:20;;;;;;;;;;;;;;;29.69;41.10;99586.22;5052651;28;834;-57
2023/06/29 12:46:47;;;;;;;;;;;;;;;28.47;44.09;99593.66;5052190;28;830;-57
2023/06/29 12:49:14;;;;;;;;;;;;;;;26.93;42.58;99587.97;5052507;28;909;-57
2023/06/29 12:51:41;;;;;;;;;;;;;;;26.42;44.98;99596.63;5051919;28;954;-57
2023/06/29 12:54:09;;;;;;;;;;;;;;;27.12;45.20;99583.28;5051966;28;1217;-57
2023/06/29 12:56:38;;;;;;;;;;;;;;;28.63;42.70;99576.97;5051998;28;810;-57
2023/06/29 12:59:04;;;;;;;;;;;;;;;29.48;42.15;99579.53;5051726;28;1957;-58
2023/06/29 13:01:31;;;;;;;;;;;;;;;29.56;40.92;99585.38;5051919;28;803;-57
2023/06/29 13:03:58;;;;;;;;;;;;;;;29.42;38.76;99573.91;5051781;28;845;-58
2023/06/29 13:06:25;;;;;;;;;;;;;;;29.56;41.45;99577.59;5051869;28;819;-58
2023/06/29 13:08:53;;;;;;;;;;;;;;;29.80;42.95;99582.41;5051809;28;893;-57
2023/06/29 13:11:20;;;;;;;;;;;;;;;30.16;44.20;99549.97;5051616;28;1221;-57
2023/06/29 13:13:47;;;;;;;;;;;;;;;30.60;42.02;99576.09;5051481;28;854;-58
2023/06/29 13:16:14;;;;;;;;;;;;;;;29.71;38.34;99586.44;5051800;28;866;-58
2023/06/29 13:18:41;;;;;;;;;;;;;;;28.00;39.26;99584.56;5033505;28;1926;-57
2023/06/29 13:21:08;;;;;;;;;;;;;;;26.74;41.12;99587.81;5051393;28;879;-57
2023/06/29 13:23:35;;;;;;;;;;;;;;;26.39;42.63;99581.41;5051439;28;803;-58
2023/06/29 13:26:02;;;;;;;;;;;;;;;27.36;44.02;99565.63;5051323;28;862;-58
2023/06/29 13:28:30;;;;;;;;;;;;;;;28.38;44.00;99562.75;5051730;28;827;-57
2023/06/29 13:30:57;;;;;;;;;;;;;;;29.25;45.69;99562.00;5051255;28;961;-57
2023/06/29 13:33:24;;;;;;;;;;;;;;;29.50;43.88;99563.44;5051382;28;830;-57